sensor_id;sensor_type;location;lat;lon;timestamp;temperature;humidity
12853;DHT22;6495;51.808;7.478;2023-02-28T00:01:42;1.60;99.90
12853;DHT22;6495;51.808;7.478;2023-02-28T00:04:10;1.60;99.90
12853;DHT22;6495;51.808;7.478;2023-02-28T00:06:38;1.50;99.90
12853;DHT22;6495;51.808;7.478;2023-02-28T00:09:06;1.50;99.90
12853;DHT22;6495;51.808;7.478;2023-02-28T00:11:36;1.60;99.90
12853;DHT22;6495;51.808;7.478;2023-02-28T00:14:04;1.50;99.90
12853;DHT22;6495;51.808;7.478;2023-02-28T00:16:32;1.50;99.90
12853;DHT22;6495;51.808;7.478;2023-02-28T00:19:01;1.50;99.90
12853;DHT22;6495;51.808;7.478;2023-02-28T00:21:29;1.50;99.90
12853;DHT22;6495;51.808;7.478;2023-02-28T00:23:58;1.50;99.90
12853;DHT22;6495;51.808;7.478;2023-02-28T00:26:26;1.40;99.90
12853;DHT22;6495;51.808;7.478;2023-02-28T00:28:55;1.50;99.90
12853;DHT22;6495;51.808;7.478;2023-02-28T00:31:23;1.40;99.90
12853;DHT22;6495;51.808;7.478;2023-02-28T00:33:55;1.40;99.90
12853;DHT22;6495;51.808;7.478;2023-02-28T00:36:23;1.30;99.90
12853;DHT22;6495;51.808;7.478;2023-02-28T00:38:51;1.30;99.90
12853;DHT22;6495;51.808;7.478;2023-02-28T00:41:20;1.30;99.90
12853;DHT22;6495;51.808;7.478;2023-02-28T00:43:48;1.30;99.90
12853;DHT22;6495;51.808;7.478;2023-02-28T00:46:17;1.30;99.90
12853;DHT22;6495;51.808;7.478;2023-02-28T00:48:45;1.30;99.90
12853;DHT22;6495;51.808;7.478;2023-02-28T00:51:14;1.20;99.90
12853;DHT22;6495;51.808;7.478;2023-02-28T00:53:42;1.20;99.90
12853;DHT22;6495;51.808;7.478;2023-02-28T00:56:10;1.20;99.90
12853;DHT22;6495;51.808;7.478;2023-02-28T00:58:38;1.10;99.90
12853;DHT22;6495;51.808;7.478;2023-02-28T01:01:07;1.20;99.90
12853;DHT22;6495;51.808;7.478;2023-02-28T01:03:38;1.10;99.90
12853;DHT22;6495;51.808;7.478;2023-02-28T01:06:07;1.10;99.90
12853;DHT22;6495;51.808;7.478;2023-02-28T01:08:35;1.10;99.90
12853;DHT22;6495;51.808;7.478;2023-02-28T01:11:10;1.10;99.90
12853;DHT22;6495;51.808;7.478;2023-02-28T01:13:39;1.00;99.90
12853;DHT22;6495;51.808;7.478;2023-02-28T01:16:08;1.00;99.90
12853;DHT22;6495;51.808;7.478;2023-02-28T01:18:39;1.00;99.90
12853;DHT22;6495;51.808;7.478;2023-02-28T01:21:10;1.00;99.90
12853;DHT22;6495;51.808;7.478;2023-02-28T01:23:40;0.90;99.90
12853;DHT22;6495;51.808;7.478;2023-02-28T01:26:12;0.90;99.90
12853;DHT22;6495;51.808;7.478;2023-02-28T01:28:42;0.90;99.90
12853;DHT22;6495;51.808;7.478;2023-02-28T01:31:11;0.90;99.90
12853;DHT22;6495;51.808;7.478;2023-02-28T01:33:41;0.80;99.90
12853;DHT22;6495;51.808;7.478;2023-02-28T01:36:11;0.80;99.90
12853;DHT22;6495;51.808;7.478;2023-02-28T01:38:41;0.80;99.90
12853;DHT22;6495;51.808;7.478;2023-02-28T01:41:15;0.80;99.90
12853;DHT22;6495;51.808;7.478;2023-02-28T01:44:06;0.80;99.90
12853;DHT22;6495;51.808;7.478;2023-02-28T01:46:56;0.80;99.90
12853;DHT22;6495;51.808;7.478;2023-02-28T01:49:25;0.70;99.90
12853;DHT22;6495;51.808;7.478;2023-02-28T01:51:54;0.70;99.90
12853;DHT22;6495;51.808;7.478;2023-02-28T01:54:31;0.70;99.90
12853;DHT22;6495;51.808;7.478;2023-02-28T01:57:04;0.70;99.90
12853;DHT22;6495;51.808;7.478;2023-02-28T01:59:37;0.70;99.90
12853;DHT22;6495;51.808;7.478;2023-02-28T02:02:14;0.70;99.90
12853;DHT22;6495;51.808;7.478;2023-02-28T02:04:50;0.60;99.90
12853;DHT22;6495;51.808;7.478;2023-02-28T02:07:22;0.60;99.90
12853;DHT22;6495;51.808;7.478;2023-02-28T02:10:01;0.60;99.90
12853;DHT22;6495;51.808;7.478;2023-02-28T02:12:43;0.60;99.90
12853;DHT22;6495;51.808;7.478;2023-02-28T02:15:27;0.50;99.90
12853;DHT22;6495;51.808;7.478;2023-02-28T02:18:05;0.50;99.90
12853;DHT22;6495;51.808;7.478;2023-02-28T02:24:11;0.50;99.90
12853;DHT22;6495;51.808;7.478;2023-02-28T02:27:25;0.50;99.90
12853;DHT22;6495;51.808;7.478;2023-02-28T02:33:47;0.40;99.90
12853;DHT22;6495;51.808;7.478;2023-02-28T02:36:43;0.40;99.90
12853;DHT22;6495;51.808;7.478;2023-02-28T02:39:21;0.40;99.90
12853;DHT22;6495;51.808;7.478;2023-02-28T02:42:01;0.40;99.90
12853;DHT22;6495;51.808;7.478;2023-02-28T02:44:41;0.30;99.90
12853;DHT22;6495;51.808;7.478;2023-02-28T02:47:18;0.30;99.90
12853;DHT22;6495;51.808;7.478;2023-02-28T02:49:51;0.30;99.90
12853;DHT22;6495;51.808;7.478;2023-02-28T02:52:25;0.20;99.90
12853;DHT22;6495;51.808;7.478;2023-02-28T02:55:00;0.20;99.90
12853;DHT22;6495;51.808;7.478;2023-02-28T02:57:34;0.10;99.90
12853;DHT22;6495;51.808;7.478;2023-02-28T03:00:07;0.10;99.90
12853;DHT22;6495;51.808;7.478;2023-02-28T03:02:38;0.10;99.90
12853;DHT22;6495;51.808;7.478;2023-02-28T03:05:19;0.10;99.90
12853;DHT22;6495;51.808;7.478;2023-02-28T03:07:50;0.00;99.90
12853;DHT22;6495;51.808;7.478;2023-02-28T03:10:33;0.00;99.90
12853;DHT22;6495;51.808;7.478;2023-02-28T03:13:30;-0.10;99.90
12853;DHT22;6495;51.808;7.478;2023-02-28T03:16:32;-0.10;99.90
12853;DHT22;6495;51.808;7.478;2023-02-28T03:22:14;-0.10;99.90
12853;DHT22;6495;51.808;7.478;2023-02-28T03:24:56;-0.20;99.90
12853;DHT22;6495;51.808;7.478;2023-02-28T03:27:31;-0.20;99.90
12853;DHT22;6495;51.808;7.478;2023-02-28T03:30:09;-0.20;99.90
12853;DHT22;6495;51.808;7.478;2023-02-28T03:32:42;-0.20;99.90
12853;DHT22;6495;51.808;7.478;2023-02-28T03:35:20;-0.30;99.90
12853;DHT22;6495;51.808;7.478;2023-02-28T03:37:56;-0.30;99.90
12853;DHT22;6495;51.808;7.478;2023-02-28T03:40:30;-0.30;99.90
12853;DHT22;6495;51.808;7.478;2023-02-28T03:43:08;-0.30;99.90
12853;DHT22;6495;51.808;7.478;2023-02-28T03:45:41;-0.30;99.90
12853;DHT22;6495;51.808;7.478;2023-02-28T03:48:15;-0.30;99.90
12853;DHT22;6495;51.808;7.478;2023-02-28T03:50:49;-0.30;99.90
12853;DHT22;6495;51.808;7.478;2023-02-28T03:53:25;-0.30;99.90
12853;DHT22;6495;51.808;7.478;2023-02-28T03:55:59;-0.40;99.90
12853;DHT22;6495;51.808;7.478;2023-02-28T03:58:38;-0.40;99.90
12853;DHT22;6495;51.808;7.478;2023-02-28T04:01:14;-0.40;99.90
12853;DHT22;6495;51.808;7.478;2023-02-28T04:03:47;-0.40;99.90
12853;DHT22;6495;51.808;7.478;2023-02-28T04:06:17;-0.40;99.90
12853;DHT22;6495;51.808;7.478;2023-02-28T04:08:48;-0.40;99.90
12853;DHT22;6495;51.808;7.478;2023-02-28T04:11:21;-0.50;99.90
12853;DHT22;6495;51.808;7.478;2023-02-28T04:13:51;-0.50;99.90
12853;DHT22;6495;51.808;7.478;2023-02-28T04:16:19;-0.50;99.90
12853;DHT22;6495;51.808;7.478;2023-02-28T04:19:01;-0.50;99.90
12853;DHT22;6495;51.808;7.478;2023-02-28T04:21:33;-0.50;99.90
12853;DHT22;6495;51.808;7.478;2023-02-28T04:24:04;-0.60;99.90
12853;DHT22;6495;51.808;7.478;2023-02-28T04:26:34;-0.60;99.90
12853;DHT22;6495;51.808;7.478;2023-02-28T04:29:05;-0.60;99.90
12853;DHT22;6495;51.808;7.478;2023-02-28T04:31:34;-0.60;99.90
12853;DHT22;6495;51.808;7.478;2023-02-28T04:34:03;-0.60;99.90
12853;DHT22;6495;51.808;7.478;2023-02-28T04:36:32;-0.60;99.90
12853;DHT22;6495;51.808;7.478;2023-02-28T04:39:00;-0.60;99.90
12853;DHT22;6495;51.808;7.478;2023-02-28T04:41:30;-0.60;99.90
12853;DHT22;6495;51.808;7.478;2023-02-28T04:43:59;-0.70;99.90
12853;DHT22;6495;51.808;7.478;2023-02-28T04:46:27;-0.70;99.90
12853;DHT22;6495;51.808;7.478;2023-02-28T04:48:55;-0.80;99.90
12853;DHT22;6495;51.808;7.478;2023-02-28T04:51:24;-0.70;99.90
12853;DHT22;6495;51.808;7.478;2023-02-28T04:53:52;-0.80;99.90
12853;DHT22;6495;51.808;7.478;2023-02-28T04:56:21;-0.80;99.90
12853;DHT22;6495;51.808;7.478;2023-02-28T04:58:50;-0.80;99.90
12853;DHT22;6495;51.808;7.478;2023-02-28T05:01:22;-0.80;99.90
12853;DHT22;6495;51.808;7.478;2023-02-28T05:03:54;-0.80;99.90
12853;DHT22;6495;51.808;7.478;2023-02-28T05:06:25;-0.80;99.90
12853;DHT22;6495;51.808;7.478;2023-02-28T05:08:54;-0.90;99.90
12853;DHT22;6495;51.808;7.478;2023-02-28T05:11:24;-0.90;99.90
12853;DHT22;6495;51.808;7.478;2023-02-28T05:13:57;-0.90;99.90
12853;DHT22;6495;51.808;7.478;2023-02-28T05:16:25;-0.90;99.90
12853;DHT22;6495;51.808;7.478;2023-02-28T05:18:54;-0.90;99.90
12853;DHT22;6495;51.808;7.478;2023-02-28T05:21:28;-0.90;99.90
12853;DHT22;6495;51.808;7.478;2023-02-28T05:24:02;-0.90;99.90
12853;DHT22;6495;51.808;7.478;2023-02-28T05:26:35;-0.90;99.90
12853;DHT22;6495;51.808;7.478;2023-02-28T05:29:05;-0.90;99.90
12853;DHT22;6495;51.808;7.478;2023-02-28T05:31:33;-0.90;99.90
12853;DHT22;6495;51.808;7.478;2023-02-28T05:34:02;-0.90;99.90
12853;DHT22;6495;51.808;7.478;2023-02-28T05:36:31;-0.90;99.90
12853;DHT22;6495;51.808;7.478;2023-02-28T05:38:59;-0.90;99.90
12853;DHT22;6495;51.808;7.478;2023-02-28T05:41:29;-0.90;99.90
12853;DHT22;6495;51.808;7.478;2023-02-28T05:43:58;-0.90;99.90
12853;DHT22;6495;51.808;7.478;2023-02-28T05:46:27;-1.00;99.90
12853;DHT22;6495;51.808;7.478;2023-02-28T05:48:55;-1.00;99.90
12853;DHT22;6495;51.808;7.478;2023-02-28T05:51:27;-1.00;99.90
12853;DHT22;6495;51.808;7.478;2023-02-28T05:53:59;-1.00;99.90
12853;DHT22;6495;51.808;7.478;2023-02-28T05:56:28;-0.90;99.90
12853;DHT22;6495;51.808;7.478;2023-02-28T05:58:56;-1.00;99.90
12853;DHT22;6495;51.808;7.478;2023-02-28T06:01:32;-1.00;99.90
12853;DHT22;6495;51.808;7.478;2023-02-28T06:04:03;-1.00;99.90
12853;DHT22;6495;51.808;7.478;2023-02-28T06:06:32;-1.00;99.90
12853;DHT22;6495;51.808;7.478;2023-02-28T06:09:03;-1.00;99.90
12853;DHT22;6495;51.808;7.478;2023-02-28T06:11:32;-1.00;99.90
12853;DHT22;6495;51.808;7.478;2023-02-28T06:14:01;-1.10;99.90
12853;DHT22;6495;51.808;7.478;2023-02-28T06:16:32;-1.10;99.90
12853;DHT22;6495;51.808;7.478;2023-02-28T06:19:03;-1.10;99.90
12853;DHT22;6495;51.808;7.478;2023-02-28T06:21:32;-1.10;99.90
12853;DHT22;6495;51.808;7.478;2023-02-28T06:24:00;-1.10;99.90
12853;DHT22;6495;51.808;7.478;2023-02-28T06:26:28;-1.10;99.90
12853;DHT22;6495;51.808;7.478;2023-02-28T06:28:57;-1.10;99.90
12853;DHT22;6495;51.808;7.478;2023-02-28T06:31:25;-1.10;99.90
12853;DHT22;6495;51.808;7.478;2023-02-28T06:33:57;-1.10;99.90
12853;DHT22;6495;51.808;7.478;2023-02-28T06:36:25;-1.10;99.90
12853;DHT22;6495;51.808;7.478;2023-02-28T06:38:53;-1.10;99.90
12853;DHT22;6495;51.808;7.478;2023-02-28T06:41:23;-1.10;99.90
12853;DHT22;6495;51.808;7.478;2023-02-28T06:43:52;-1.10;99.90
12853;DHT22;6495;51.808;7.478;2023-02-28T06:46:21;-1.10;99.90
12853;DHT22;6495;51.808;7.478;2023-02-28T06:48:50;-1.10;99.90
12853;DHT22;6495;51.808;7.478;2023-02-28T06:51:20;-1.10;99.90
12853;DHT22;6495;51.808;7.478;2023-02-28T06:53:49;-1.10;99.90
12853;DHT22;6495;51.808;7.478;2023-02-28T06:56:18;-1.00;99.90
12853;DHT22;6495;51.808;7.478;2023-02-28T06:58:47;-1.00;99.90
12853;DHT22;6495;51.808;7.478;2023-02-28T07:01:16;-1.00;99.90
12853;DHT22;6495;51.808;7.478;2023-02-28T07:03:45;-1.00;99.90
12853;DHT22;6495;51.808;7.478;2023-02-28T07:06:20;-1.00;99.90
12853;DHT22;6495;51.808;7.478;2023-02-28T07:08:50;-1.00;99.90
12853;DHT22;6495;51.808;7.478;2023-02-28T07:11:20;-1.00;99.90
12853;DHT22;6495;51.808;7.478;2023-02-28T07:13:49;-0.90;99.90
12853;DHT22;6495;51.808;7.478;2023-02-28T07:16:18;-0.90;99.90
12853;DHT22;6495;51.808;7.478;2023-02-28T07:18:46;-0.90;99.90
12853;DHT22;6495;51.808;7.478;2023-02-28T07:21:15;-0.90;99.90
12853;DHT22;6495;51.808;7.478;2023-02-28T07:23:44;-0.80;99.90
12853;DHT22;6495;51.808;7.478;2023-02-28T07:26:14;-0.80;99.90
12853;DHT22;6495;51.808;7.478;2023-02-28T07:28:45;-0.80;99.90
12853;DHT22;6495;51.808;7.478;2023-02-28T07:31:15;-0.80;99.90
12853;DHT22;6495;51.808;7.478;2023-02-28T07:33:45;-0.70;99.90
12853;DHT22;6495;51.808;7.478;2023-02-28T07:36:15;-0.60;99.90
12853;DHT22;6495;51.808;7.478;2023-02-28T07:38:48;-0.60;99.90
12853;DHT22;6495;51.808;7.478;2023-02-28T07:41:17;-0.60;99.90
12853;DHT22;6495;51.808;7.478;2023-02-28T07:43:47;-0.50;99.90
12853;DHT22;6495;51.808;7.478;2023-02-28T07:46:16;-0.40;99.90
12853;DHT22;6495;51.808;7.478;2023-02-28T07:48:46;-0.40;99.90
12853;DHT22;6495;51.808;7.478;2023-02-28T07:51:14;-0.30;99.90
12853;DHT22;6495;51.808;7.478;2023-02-28T07:53:43;-0.20;99.90
12853;DHT22;6495;51.808;7.478;2023-02-28T07:56:12;-0.20;99.90
12853;DHT22;6495;51.808;7.478;2023-02-28T07:58:40;-0.10;99.90
12853;DHT22;6495;51.808;7.478;2023-02-28T08:01:09;0.00;99.90
12853;DHT22;6495;51.808;7.478;2023-02-28T08:03:39;0.00;99.90
12853;DHT22;6495;51.808;7.478;2023-02-28T08:06:15;0.10;99.90
12853;DHT22;6495;51.808;7.478;2023-02-28T08:08:44;0.20;99.90
12853;DHT22;6495;51.808;7.478;2023-02-28T08:11:14;0.30;99.90
12853;DHT22;6495;51.808;7.478;2023-02-28T08:13:43;0.50;99.90
12853;DHT22;6495;51.808;7.478;2023-02-28T08:16:13;0.60;99.90
12853;DHT22;6495;51.808;7.478;2023-02-28T08:18:44;0.70;99.90
12853;DHT22;6495;51.808;7.478;2023-02-28T08:21:13;0.80;99.90
12853;DHT22;6495;51.808;7.478;2023-02-28T08:23:41;0.90;99.90
12853;DHT22;6495;51.808;7.478;2023-02-28T08:26:09;1.10;99.90
12853;DHT22;6495;51.808;7.478;2023-02-28T08:28:39;1.20;99.90
12853;DHT22;6495;51.808;7.478;2023-02-28T08:31:08;1.40;99.90
12853;DHT22;6495;51.808;7.478;2023-02-28T08:33:37;1.50;99.90
12853;DHT22;6495;51.808;7.478;2023-02-28T08:36:07;1.70;99.90
12853;DHT22;6495;51.808;7.478;2023-02-28T08:38:37;1.80;99.90
12853;DHT22;6495;51.808;7.478;2023-02-28T08:41:07;2.00;99.90
12853;DHT22;6495;51.808;7.478;2023-02-28T08:43:40;2.20;99.90
12853;DHT22;6495;51.808;7.478;2023-02-28T08:46:11;2.30;99.90
12853;DHT22;6495;51.808;7.478;2023-02-28T08:48:41;2.50;99.90
12853;DHT22;6495;51.808;7.478;2023-02-28T08:51:10;2.60;99.90
12853;DHT22;6495;51.808;7.478;2023-02-28T08:53:40;2.80;99.90
12853;DHT22;6495;51.808;7.478;2023-02-28T08:56:10;2.90;99.90
12853;DHT22;6495;51.808;7.478;2023-02-28T08:58:42;3.10;99.90
12853;DHT22;6495;51.808;7.478;2023-02-28T09:01:12;3.20;99.90
12853;DHT22;6495;51.808;7.478;2023-02-28T09:03:42;3.40;99.90
12853;DHT22;6495;51.808;7.478;2023-02-28T09:06:14;3.50;99.90
12853;DHT22;6495;51.808;7.478;2023-02-28T09:08:43;3.60;99.90
12853;DHT22;6495;51.808;7.478;2023-02-28T09:11:13;3.60;99.90
12853;DHT22;6495;51.808;7.478;2023-02-28T09:13:43;3.70;99.90
12853;DHT22;6495;51.808;7.478;2023-02-28T09:16:12;3.90;99.90
12853;DHT22;6495;51.808;7.478;2023-02-28T09:18:43;3.90;99.90
12853;DHT22;6495;51.808;7.478;2023-02-28T09:21:14;4.10;99.90
12853;DHT22;6495;51.808;7.478;2023-02-28T09:23:44;4.20;99.90
12853;DHT22;6495;51.808;7.478;2023-02-28T09:26:14;4.30;99.90
12853;DHT22;6495;51.808;7.478;2023-02-28T09:28:45;4.30;99.90
12853;DHT22;6495;51.808;7.478;2023-02-28T09:31:14;4.40;99.90
12853;DHT22;6495;51.808;7.478;2023-02-28T09:33:48;4.50;99.90
12853;DHT22;6495;51.808;7.478;2023-02-28T09:36:17;4.60;99.90
12853;DHT22;6495;51.808;7.478;2023-02-28T09:38:45;4.70;99.90
12853;DHT22;6495;51.808;7.478;2023-02-28T09:41:17;4.70;99.90
12853;DHT22;6495;51.808;7.478;2023-02-28T09:43:51;4.90;99.90
12853;DHT22;6495;51.808;7.478;2023-02-28T09:46:28;4.90;99.90
12853;DHT22;6495;51.808;7.478;2023-02-28T09:49:02;4.90;99.90
12853;DHT22;6495;51.808;7.478;2023-02-28T09:51:45;5.00;99.90
12853;DHT22;6495;51.808;7.478;2023-02-28T09:54:21;5.00;99.90
12853;DHT22;6495;51.808;7.478;2023-02-28T09:56:53;5.00;99.90
12853;DHT22;6495;51.808;7.478;2023-02-28T09:59:42;5.10;99.90
12853;DHT22;6495;51.808;7.478;2023-02-28T10:02:35;5.10;99.90
12853;DHT22;6495;51.808;7.478;2023-02-28T10:05:14;5.20;99.90
12853;DHT22;6495;51.808;7.478;2023-02-28T10:07:54;5.20;99.90
12853;DHT22;6495;51.808;7.478;2023-02-28T10:10:32;5.30;99.90
12853;DHT22;6495;51.808;7.478;2023-02-28T10:13:12;5.30;99.90
12853;DHT22;6495;51.808;7.478;2023-02-28T10:15:48;5.40;99.90
12853;DHT22;6495;51.808;7.478;2023-02-28T10:18:24;5.40;99.90
12853;DHT22;6495;51.808;7.478;2023-02-28T10:20:55;5.50;99.90
12853;DHT22;6495;51.808;7.478;2023-02-28T10:23:28;5.40;99.90
12853;DHT22;6495;51.808;7.478;2023-02-28T10:26:01;5.50;99.90
12853;DHT22;6495;51.808;7.478;2023-02-28T10:28:36;5.50;99.90
12853;DHT22;6495;51.808;7.478;2023-02-28T10:31:08;5.60;99.90
12853;DHT22;6495;51.808;7.478;2023-02-28T10:33:42;5.60;99.90
12853;DHT22;6495;51.808;7.478;2023-02-28T10:36:14;5.60;99.90
12853;DHT22;6495;51.808;7.478;2023-02-28T10:38:45;5.60;99.80
12853;DHT22;6495;51.808;7.478;2023-02-28T10:41:16;5.50;98.60
12853;DHT22;6495;51.808;7.478;2023-02-28T10:44:13;5.50;99.20
12853;DHT22;6495;51.808;7.478;2023-02-28T10:46:44;5.60;99.90
12853;DHT22;6495;51.808;7.478;2023-02-28T10:49:15;5.60;99.90
12853;DHT22;6495;51.808;7.478;2023-02-28T10:51:50;5.70;99.90
12853;DHT22;6495;51.808;7.478;2023-02-28T10:54:27;5.70;98.50
12853;DHT22;6495;51.808;7.478;2023-02-28T10:57:17;5.70;97.40
12853;DHT22;6495;51.808;7.478;2023-02-28T10:59:50;5.80;97.50
12853;DHT22;6495;51.808;7.478;2023-02-28T11:02:32;5.90;98.50
12853;DHT22;6495;51.808;7.478;2023-02-28T11:05:03;6.00;97.90
12853;DHT22;6495;51.808;7.478;2023-02-28T11:07:52;5.90;97.80
12853;DHT22;6495;51.808;7.478;2023-02-28T11:10:25;6.00;96.70
12853;DHT22;6495;51.808;7.478;2023-02-28T11:12:56;5.90;97.20
12853;DHT22;6495;51.808;7.478;2023-02-28T11:15:28;5.90;97.20
12853;DHT22;6495;51.808;7.478;2023-02-28T11:18:02;5.90;96.10
12853;DHT22;6495;51.808;7.478;2023-02-28T11:20:47;5.80;96.90
12853;DHT22;6495;51.808;7.478;2023-02-28T11:23:18;5.80;95.90
12853;DHT22;6495;51.808;7.478;2023-02-28T11:25:49;5.80;96.80
12853;DHT22;6495;51.808;7.478;2023-02-28T11:28:26;5.90;96.60
12853;DHT22;6495;51.808;7.478;2023-02-28T11:31:01;5.90;97.00
12853;DHT22;6495;51.808;7.478;2023-02-28T11:33:41;6.00;97.60
12853;DHT22;6495;51.808;7.478;2023-02-28T11:36:14;6.00;96.10
12853;DHT22;6495;51.808;7.478;2023-02-28T11:38:47;6.00;96.80
12853;DHT22;6495;51.808;7.478;2023-02-28T11:41:34;6.00;95.70
12853;DHT22;6495;51.808;7.478;2023-02-28T11:44:28;6.10;96.20
12853;DHT22;6495;51.808;7.478;2023-02-28T11:47:12;6.10;96.30
12853;DHT22;6495;51.808;7.478;2023-02-28T11:49:54;6.10;94.90
12853;DHT22;6495;51.808;7.478;2023-02-28T11:52:38;6.00;95.20
12853;DHT22;6495;51.808;7.478;2023-02-28T11:55:17;6.00;95.10
12853;DHT22;6495;51.808;7.478;2023-02-28T11:58:14;6.00;95.20
12853;DHT22;6495;51.808;7.478;2023-02-28T12:01:00;6.00;95.70
12853;DHT22;6495;51.808;7.478;2023-02-28T12:03:44;6.00;94.60
12853;DHT22;6495;51.808;7.478;2023-02-28T12:06:25;6.10;95.20
12853;DHT22;6495;51.808;7.478;2023-02-28T12:09:04;6.10;95.30
12853;DHT22;6495;51.808;7.478;2023-02-28T12:11:52;6.20;95.40
12853;DHT22;6495;51.808;7.478;2023-02-28T12:17:55;6.30;95.00
12853;DHT22;6495;51.808;7.478;2023-02-28T12:20:38;6.50;95.80
12853;DHT22;6495;51.808;7.478;2023-02-28T12:23:33;6.50;95.00
12853;DHT22;6495;51.808;7.478;2023-02-28T12:26:19;6.60;95.10
12853;DHT22;6495;51.808;7.478;2023-02-28T12:28:59;6.60;94.40
12853;DHT22;6495;51.808;7.478;2023-02-28T12:31:36;6.60;94.70
12853;DHT22;6495;51.808;7.478;2023-02-28T12:34:10;6.60;93.50
12853;DHT22;6495;51.808;7.478;2023-02-28T12:36:44;6.60;94.70
12853;DHT22;6495;51.808;7.478;2023-02-28T12:39:20;6.60;95.00
12853;DHT22;6495;51.808;7.478;2023-02-28T12:41:59;6.50;94.30
12853;DHT22;6495;51.808;7.478;2023-02-28T12:44:33;6.50;94.50
12853;DHT22;6495;51.808;7.478;2023-02-28T12:47:12;6.40;94.70
12853;DHT22;6495;51.808;7.478;2023-02-28T12:49:45;6.40;95.00
12853;DHT22;6495;51.808;7.478;2023-02-28T12:52:21;6.40;95.20
12853;DHT22;6495;51.808;7.478;2023-02-28T12:55:00;6.40;96.00
12853;DHT22;6495;51.808;7.478;2023-02-28T12:57:38;6.30;95.70
12853;DHT22;6495;51.808;7.478;2023-02-28T13:00:13;6.30;95.90
12853;DHT22;6495;51.808;7.478;2023-02-28T13:03:01;6.30;96.50
12853;DHT22;6495;51.808;7.478;2023-02-28T13:06:05;6.30;96.70
12853;DHT22;6495;51.808;7.478;2023-02-28T13:09:08;6.30;96.20
12853;DHT22;6495;51.808;7.478;2023-02-28T13:11:43;6.30;95.70
12853;DHT22;6495;51.808;7.478;2023-02-28T13:14:20;6.30;96.80
12853;DHT22;6495;51.808;7.478;2023-02-28T13:17:03;6.20;96.70
12853;DHT22;6495;51.808;7.478;2023-02-28T13:19:41;6.20;97.20
12853;DHT22;6495;51.808;7.478;2023-02-28T13:22:20;6.30;96.80
12853;DHT22;6495;51.808;7.478;2023-02-28T13:35:36;6.20;96.30
12853;DHT22;6495;51.808;7.478;2023-02-28T13:38:24;6.20;96.90
12853;DHT22;6495;51.808;7.478;2023-02-28T13:44:11;6.10;96.90
12853;DHT22;6495;51.808;7.478;2023-02-28T13:47:19;6.10;96.70
12853;DHT22;6495;51.808;7.478;2023-02-28T13:49:53;6.10;97.30
12853;DHT22;6495;51.808;7.478;2023-02-28T13:52:23;6.10;96.90
12853;DHT22;6495;51.808;7.478;2023-02-28T13:55:12;6.10;96.60
12853;DHT22;6495;51.808;7.478;2023-02-28T13:58:03;6.10;96.80
12853;DHT22;6495;51.808;7.478;2023-02-28T14:00:57;6.10;97.80
12853;DHT22;6495;51.808;7.478;2023-02-28T14:03:49;6.10;97.30
12853;DHT22;6495;51.808;7.478;2023-02-28T14:06:32;6.10;97.50
12853;DHT22;6495;51.808;7.478;2023-02-28T14:09:05;6.10;97.70
12853;DHT22;6495;51.808;7.478;2023-02-28T14:11:46;6.10;97.50
12853;DHT22;6495;51.808;7.478;2023-02-28T14:14:53;6.10;97.30
12853;DHT22;6495;51.808;7.478;2023-02-28T14:17:24;6.10;96.70
12853;DHT22;6495;51.808;7.478;2023-02-28T14:19:53;6.10;97.10
12853;DHT22;6495;51.808;7.478;2023-02-28T14:22:53;6.00;97.10
12853;DHT22;6495;51.808;7.478;2023-02-28T14:25:33;6.00;97.30
12853;DHT22;6495;51.808;7.478;2023-02-28T14:28:14;6.00;98.00
12853;DHT22;6495;51.808;7.478;2023-02-28T14:31:02;6.00;97.30
12853;DHT22;6495;51.808;7.478;2023-02-28T14:33:57;6.00;97.10
12853;DHT22;6495;51.808;7.478;2023-02-28T14:36:40;6.00;97.40
12853;DHT22;6495;51.808;7.478;2023-02-28T14:39:15;6.00;97.30
12853;DHT22;6495;51.808;7.478;2023-02-28T14:41:46;6.00;97.40
12853;DHT22;6495;51.808;7.478;2023-02-28T14:44:17;6.00;97.60
12853;DHT22;6495;51.808;7.478;2023-02-28T14:46:50;6.00;98.00
12853;DHT22;6495;51.808;7.478;2023-02-28T14:49:23;6.00;97.70
12853;DHT22;6495;51.808;7.478;2023-02-28T14:52:03;6.00;97.10
12853;DHT22;6495;51.808;7.478;2023-02-28T14:54:38;6.00;96.90
12853;DHT22;6495;51.808;7.478;2023-02-28T14:57:21;6.00;97.90
12853;DHT22;6495;51.808;7.478;2023-02-28T14:59:58;6.00;97.20
12853;DHT22;6495;51.808;7.478;2023-02-28T15:02:38;6.00;97.90
12853;DHT22;6495;51.808;7.478;2023-02-28T15:05:21;6.00;97.90
12853;DHT22;6495;51.808;7.478;2023-02-28T15:08:02;6.00;98.00
12853;DHT22;6495;51.808;7.478;2023-02-28T15:10:34;6.00;98.00
12853;DHT22;6495;51.808;7.478;2023-02-28T15:13:05;6.00;98.20
12853;DHT22;6495;51.808;7.478;2023-02-28T15:15:42;6.00;97.70
12853;DHT22;6495;51.808;7.478;2023-02-28T15:18:31;6.10;97.80
12853;DHT22;6495;51.808;7.478;2023-02-28T15:21:11;6.20;97.70
12853;DHT22;6495;51.808;7.478;2023-02-28T15:23:46;6.20;97.30
12853;DHT22;6495;51.808;7.478;2023-02-28T15:26:21;6.20;97.20
12853;DHT22;6495;51.808;7.478;2023-02-28T15:29:01;6.20;96.80
12853;DHT22;6495;51.808;7.478;2023-02-28T15:31:34;6.20;97.00
12853;DHT22;6495;51.808;7.478;2023-02-28T15:34:26;6.20;96.90
12853;DHT22;6495;51.808;7.478;2023-02-28T15:37:29;6.20;96.60
12853;DHT22;6495;51.808;7.478;2023-02-28T15:40:11;6.20;95.90
12853;DHT22;6495;51.808;7.478;2023-02-28T15:42:58;6.20;96.20
12853;DHT22;6495;51.808;7.478;2023-02-28T15:45:36;6.10;95.70
12853;DHT22;6495;51.808;7.478;2023-02-28T15:48:16;6.10;96.30
12853;DHT22;6495;51.808;7.478;2023-02-28T15:50:49;6.10;96.40
12853;DHT22;6495;51.808;7.478;2023-02-28T15:53:23;6.10;96.70
12853;DHT22;6495;51.808;7.478;2023-02-28T15:56:00;6.00;96.80
12853;DHT22;6495;51.808;7.478;2023-02-28T15:58:33;6.00;96.50
12853;DHT22;6495;51.808;7.478;2023-02-28T16:01:16;6.00;96.80
12853;DHT22;6495;51.808;7.478;2023-02-28T16:03:48;6.00;96.60
12853;DHT22;6495;51.808;7.478;2023-02-28T16:06:40;5.90;96.70
12853;DHT22;6495;51.808;7.478;2023-02-28T16:09:12;5.90;96.90
12853;DHT22;6495;51.808;7.478;2023-02-28T16:11:45;5.90;96.70
12853;DHT22;6495;51.808;7.478;2023-02-28T16:14:20;5.90;97.10
12853;DHT22;6495;51.808;7.478;2023-02-28T16:16:52;5.80;96.80
12853;DHT22;6495;51.808;7.478;2023-02-28T16:19:23;5.80;97.20
12853;DHT22;6495;51.808;7.478;2023-02-28T16:21:52;5.70;96.80
12853;DHT22;6495;51.808;7.478;2023-02-28T16:24:20;5.70;96.90
12853;DHT22;6495;51.808;7.478;2023-02-28T16:26:51;5.70;96.90
12853;DHT22;6495;51.808;7.478;2023-02-28T16:29:35;5.70;97.10
12853;DHT22;6495;51.808;7.478;2023-02-28T16:32:05;5.70;97.50
12853;DHT22;6495;51.808;7.478;2023-02-28T16:34:34;5.60;97.60
12853;DHT22;6495;51.808;7.478;2023-02-28T16:37:04;5.60;97.50
12853;DHT22;6495;51.808;7.478;2023-02-28T16:39:37;5.60;97.40
12853;DHT22;6495;51.808;7.478;2023-02-28T16:42:16;5.60;97.40
12853;DHT22;6495;51.808;7.478;2023-02-28T16:44:50;5.60;97.60
12853;DHT22;6495;51.808;7.478;2023-02-28T16:47:19;5.50;97.80
12853;DHT22;6495;51.808;7.478;2023-02-28T16:49:48;5.50;97.70
12853;DHT22;6495;51.808;7.478;2023-02-28T16:52:16;5.50;97.50
12853;DHT22;6495;51.808;7.478;2023-02-28T16:54:44;5.40;97.30
12853;DHT22;6495;51.808;7.478;2023-02-28T16:57:18;5.40;97.50
12853;DHT22;6495;51.808;7.478;2023-02-28T16:59:50;5.40;97.40
12853;DHT22;6495;51.808;7.478;2023-02-28T17:02:19;5.40;97.70
12853;DHT22;6495;51.808;7.478;2023-02-28T17:04:47;5.30;97.40
12853;DHT22;6495;51.808;7.478;2023-02-28T17:07:16;5.30;97.40
12853;DHT22;6495;51.808;7.478;2023-02-28T17:09:45;5.30;97.40
12853;DHT22;6495;51.808;7.478;2023-02-28T17:12:13;5.20;97.60